This is the latest recevied weather packets stored in our database for station/object EA1JAV-10. If no packets are shown the sender has not sent any weather packets the latest 10 day(s).
| Time | Temp. | Humidity | Pressure | Rain* | Wind** | Luminosity | Snow |
|---|---|---|---|---|---|---|---|
| 1777582557 | 21.67° C | 39% | 1005.1 hPa | - | - | - | - |
| 1777580757 | 20.56° C | 41% | 1004.8 hPa | - | - | - | - |
| 1777578957 | 20.56° C | 41% | 1004.5 hPa | - | - | - | - |
| 1777577157 | 20.56° C | 40% | 1004.1 hPa | - | - | - | - |
| 1777575357 | 20.56° C | 41% | 1003.9 hPa | - | - | - | - |
| 1777573557 | 20.56° C | 40% | 1003.7 hPa | - | - | - | - |
| 1777571757 | 21.11° C | 40% | 1003.6 hPa | - | - | - | - |
| 1777569957 | 21.67° C | 39% | 1003.6 hPa | - | - | - | - |
| 1777568157 | 21.11° C | 40% | 1003.5 hPa | - | - | - | - |
| 1777566357 | 21.67° C | 39% | 1003.4 hPa | - | - | - | - |
| 1777564556 | 21.11° C | 40% | 1003.4 hPa | - | - | - | - |
| 1777562756 | 22.22° C | 38% | 1003.3 hPa | - | - | - | - |
| 1777560956 | 20.56° C | 41% | 1003.2 hPa | - | - | - | - |
| 1777559156 | 20.56° C | 41% | 1003.3 hPa | - | - | - | - |
| 1777557356 | 20.56° C | 41% | 1003.2 hPa | - | - | - | - |
| 1777555556 | 20.56° C | 41% | 1003.2 hPa | - | - | - | - |
| 1777553756 | 20.56° C | 41% | 1003 hPa | - | - | - | - |
| 1777551956 | 21.11° C | 40% | 1002.9 hPa | - | - | - | - |
| 1777550156 | 20° C | 42% | 1002.9 hPa | - | - | - | - |
| 1777548356 | 20° C | 42% | 1003 hPa | - | - | - | - |
| 1777546555 | 20° C | 42% | 1002.8 hPa | - | - | - | - |
| 1777544755 | 19.44° C | 42% | 1002.6 hPa | - | - | - | - |
| 1777542955 | 19.44° C | 42% | 1002.4 hPa | - | - | - | - |
| 1777541155 | 20.56° C | 41% | 1002.1 hPa | - | - | - | - |
| 1777539355 | 19.44° C | 43% | 1001.7 hPa | - | - | - | - |
* Rain since midnight (hover to see other rain measurements)
** Current wind speed in m/s (hover to see current wind gust speed)